createdAt,value
2023-03-04T00:02:24.681Z,-1.09
2023-03-04T00:04:52.943Z,-1.12
2023-03-04T00:07:21.056Z,-1.12
2023-03-04T00:09:53.397Z,-1.12
2023-03-04T00:12:21.833Z,-1.11
2023-03-04T00:14:50.038Z,-1.10
2023-03-04T00:17:26.349Z,-1.06
2023-03-04T00:19:55.238Z,-1.04
2023-03-04T00:22:24.165Z,-1.03
2023-03-04T00:24:54.031Z,-1.01
2023-03-04T00:27:23.187Z,-0.99
2023-03-04T00:29:51.315Z,-0.99
2023-03-04T00:32:19.547Z,-0.96
2023-03-04T00:34:47.679Z,-0.96
2023-03-04T00:37:15.697Z,-0.95
2023-03-04T00:39:45.469Z,-0.94
2023-03-04T00:42:16.629Z,-0.96
2023-03-04T00:44:44.647Z,-0.99
2023-03-04T00:47:13.095Z,-1.01
2023-03-04T00:49:41.963Z,-1.03
2023-03-04T00:52:10.768Z,-1.04
2023-03-04T00:54:42.977Z,-1.07
2023-03-04T00:57:11.289Z,-1.10
2023-03-04T00:59:40.946Z,-1.12
2023-03-04T01:02:09.060Z,-1.15
2023-03-04T01:04:38.236Z,-1.21
2023-03-04T01:07:06.727Z,-1.26
2023-03-04T01:09:36.435Z,-1.28
2023-03-04T01:12:06.229Z,-1.31
2023-03-04T01:14:34.886Z,-1.32
2023-03-04T01:17:06.243Z,-1.35
2023-03-04T01:19:34.877Z,-1.37
2023-03-04T01:22:03.283Z,-1.37
2023-03-04T01:24:32.051Z,-1.39
2023-03-04T01:27:00.110Z,-1.39
2023-03-04T01:29:32.372Z,-1.40
2023-03-04T01:32:00.574Z,-1.42
2023-03-04T01:34:29.031Z,-1.43
2023-03-04T01:36:58.618Z,-1.44
2023-03-04T01:39:26.900Z,-1.44
2023-03-04T01:41:56.657Z,-1.44
2023-03-04T01:44:24.742Z,-1.41
2023-03-04T01:46:57.006Z,-1.38
2023-03-04T01:49:26.706Z,-1.36
2023-03-04T01:51:54.937Z,-1.36
2023-03-04T01:54:23.149Z,-1.36
2023-03-04T01:56:51.788Z,-1.37
2023-03-04T01:59:24.960Z,-1.40
2023-03-04T02:01:55.103Z,-1.41
2023-03-04T02:04:34.528Z,-1.41
2023-03-04T02:07:03.809Z,-1.41
2023-03-04T02:09:32.025Z,-1.43
2023-03-04T02:12:01.237Z,-1.45
2023-03-04T02:14:29.563Z,-1.47
2023-03-04T02:16:57.742Z,-1.48
2023-03-04T02:20:01.372Z,-1.48
2023-03-04T02:22:30.095Z,-1.48
2023-03-04T02:25:01.325Z,-1.48
2023-03-04T02:27:29.788Z,-1.46
2023-03-04T02:29:57.890Z,-1.46
2023-03-04T02:32:26.015Z,-1.46
2023-03-04T02:34:55.816Z,-1.48
2023-03-04T02:37:23.805Z,-1.51
2023-03-04T02:39:53.308Z,-1.54
2023-03-04T02:42:21.566Z,-1.55
2023-03-04T02:44:59.845Z,-1.55
2023-03-04T02:47:28.060Z,-1.55
2023-03-04T02:49:56.377Z,-1.56
2023-03-04T02:52:33.535Z,-1.57
2023-03-04T02:55:02.343Z,-1.55
2023-03-04T02:57:31.075Z,-1.53
2023-03-04T02:59:59.118Z,-1.51
2023-03-04T03:02:29.254Z,-1.50
2023-03-04T03:04:57.946Z,-1.48
2023-03-04T03:07:28.587Z,-1.47
2023-03-04T03:09:57.271Z,-1.46
2023-03-04T03:12:25.768Z,-1.42
2023-03-04T03:14:53.868Z,-1.41
2023-03-04T03:17:22.152Z,-1.39
2023-03-04T03:19:50.628Z,-1.40
2023-03-04T03:22:18.903Z,-1.39
2023-03-04T03:24:47.250Z,-1.36
2023-03-04T03:27:15.446Z,-1.34
2023-03-04T03:29:45.124Z,-1.33
2023-03-04T03:32:13.297Z,-1.33
2023-03-04T03:34:42.487Z,-1.32
2023-03-04T03:37:11.018Z,-1.30
2023-03-04T03:39:43.007Z,-1.29
2023-03-04T03:42:11.104Z,-1.26
2023-03-04T03:44:39.337Z,-1.24
2023-03-04T03:47:08.041Z,-1.21
2023-03-04T03:49:36.142Z,-1.19
2023-03-04T03:52:04.342Z,-1.15
2023-03-04T03:54:33.182Z,-1.14
2023-03-04T03:57:06.801Z,-1.12
2023-03-04T03:59:36.792Z,-1.10
2023-03-04T04:02:04.997Z,-1.11
2023-03-04T04:04:33.933Z,-1.09
2023-03-04T04:07:02.042Z,-1.07
2023-03-04T04:09:30.898Z,-1.04
2023-03-04T04:11:58.980Z,-1.04
2023-03-04T04:14:33.079Z,-1.01
2023-03-04T04:17:01.131Z,-0.99
2023-03-04T04:19:29.762Z,-0.96
2023-03-04T04:21:57.904Z,-0.94
2023-03-04T04:24:26.435Z,-0.95
2023-03-04T04:27:01.698Z,-0.91
2023-03-04T04:29:29.992Z,-0.90
2023-03-04T04:31:58.440Z,-0.89
2023-03-04T04:34:26.633Z,-0.88
2023-03-04T04:36:54.975Z,-0.85
2023-03-04T04:39:23.204Z,-0.83
2023-03-04T04:41:51.776Z,-0.80
2023-03-04T04:44:19.791Z,-0.79
2023-03-04T04:46:47.873Z,-0.76
2023-03-04T04:49:15.967Z,-0.75
2023-03-04T04:51:45.666Z,-0.73
2023-03-04T04:54:14.126Z,-0.73
2023-03-04T04:56:42.346Z,-0.70
2023-03-04T04:59:10.441Z,-0.67
2023-03-04T05:01:39.385Z,-0.65
2023-03-04T05:04:07.669Z,-0.63
2023-03-04T05:06:35.905Z,-0.60
2023-03-04T05:09:04.628Z,-0.58
2023-03-04T05:11:33.005Z,-0.57
2023-03-04T05:14:03.072Z,-0.55
2023-03-04T05:16:31.538Z,-0.55
2023-03-04T05:18:59.594Z,-0.56
2023-03-04T05:21:27.717Z,-0.57
2023-03-04T05:23:55.809Z,-0.55
2023-03-04T05:26:25.128Z,-0.54
2023-03-04T05:28:53.439Z,-0.53
2023-03-04T05:31:21.602Z,-0.50
2023-03-04T05:33:50.303Z,-0.50
2023-03-04T05:36:18.292Z,-0.47
2023-03-04T05:38:46.953Z,-0.46
2023-03-04T05:41:14.928Z,-0.45
2023-03-04T05:43:43.804Z,-0.42
2023-03-04T05:46:16.040Z,-0.42
2023-03-04T05:48:44.919Z,-0.39
2023-03-04T05:51:13.285Z,-0.33
2023-03-04T05:53:41.635Z,-0.33
2023-03-04T05:56:14.638Z,-0.28
2023-03-04T05:58:43.466Z,-0.27
2023-03-04T06:01:12.119Z,-0.24
2023-03-04T06:03:40.387Z,-0.22
2023-03-04T06:06:08.496Z,-0.18
2023-03-04T06:08:37.477Z,-0.16
2023-03-04T06:11:05.860Z,-0.13
2023-03-04T06:13:38.148Z,-0.09
2023-03-04T06:16:07.150Z,-0.04
2023-03-04T06:18:35.451Z,-0.02
2023-03-04T06:21:07.135Z,-0.03
2023-03-04T06:23:35.217Z,0.01
2023-03-04T06:26:03.329Z,0.05
2023-03-04T06:28:31.949Z,0.07
2023-03-04T06:31:00.355Z,0.13
2023-03-04T06:33:32.772Z,0.17
2023-03-04T06:36:00.961Z,0.20
2023-03-04T06:38:29.462Z,0.23
2023-03-04T06:40:57.787Z,0.23
2023-03-04T06:43:26.197Z,0.27
2023-03-04T06:45:55.472Z,0.30
2023-03-04T06:48:23.995Z,0.30
2023-03-04T06:50:52.078Z,0.38
2023-03-04T06:53:23.511Z,0.41
2023-03-04T06:55:55.584Z,0.46
2023-03-04T06:58:24.018Z,0.53
2023-03-04T07:00:52.090Z,0.57
2023-03-04T07:03:20.851Z,0.63
2023-03-04T07:05:49.226Z,0.66
2023-03-04T07:08:21.677Z,0.69
2023-03-04T07:10:52.208Z,0.75
2023-03-04T07:13:20.578Z,0.79
2023-03-04T07:15:54.040Z,0.83
2023-03-04T07:18:22.653Z,0.88
2023-03-04T07:20:55.136Z,0.89
2023-03-04T07:23:24.575Z,0.93
2023-03-04T07:25:52.839Z,0.98
2023-03-04T07:28:21.589Z,1.02
2023-03-04T07:30:52.960Z,1.05
2023-03-04T07:33:20.962Z,1.08
2023-03-04T07:35:49.455Z,1.12
2023-03-04T07:38:17.482Z,1.12
2023-03-04T07:40:45.699Z,1.14
2023-03-04T07:43:14.575Z,1.17
2023-03-04T07:45:43.473Z,1.25
2023-03-04T07:48:12.516Z,1.27
2023-03-04T07:50:40.754Z,1.30
2023-03-04T07:53:09.653Z,1.34
2023-03-04T07:55:37.850Z,1.38
2023-03-04T07:58:05.885Z,1.43
2023-03-04T08:00:35.239Z,1.53
2023-03-04T08:03:04.494Z,1.60
2023-03-04T08:05:36.161Z,1.61
2023-03-04T08:08:07.554Z,1.64
2023-03-04T08:10:36.367Z,1.69
2023-03-04T08:13:05.399Z,1.75
2023-03-04T08:15:35.371Z,1.76
2023-03-04T08:18:06.093Z,1.81
2023-03-04T08:20:34.968Z,1.93
2023-03-04T08:23:05.949Z,2.04
2023-03-04T08:25:41.660Z,2.11
2023-03-04T08:28:10.015Z,2.11
2023-03-04T08:30:38.379Z,2.04
2023-03-04T08:33:11.218Z,1.98
2023-03-04T08:35:39.841Z,1.91
2023-03-04T08:38:14.947Z,1.78
2023-03-04T08:40:44.106Z,1.75
2023-03-04T08:43:13.066Z,1.76
2023-03-04T08:45:42.416Z,1.77
2023-03-04T08:48:11.562Z,1.68
2023-03-04T08:50:39.898Z,1.62
2023-03-04T08:53:08.016Z,1.61
2023-03-04T08:55:38.394Z,1.61
2023-03-04T08:58:07.329Z,1.62
2023-03-04T09:00:36.438Z,1.67
2023-03-04T09:03:24.364Z,1.73
2023-03-04T09:05:54.676Z,1.73
2023-03-04T09:08:25.480Z,1.80
2023-03-04T09:10:54.114Z,1.79
2023-03-04T09:13:26.140Z,1.76
2023-03-04T09:15:56.413Z,1.81
2023-03-04T09:18:24.890Z,1.84
2023-03-04T09:20:53.041Z,1.92
2023-03-04T09:23:22.525Z,1.93
2023-03-04T09:25:50.678Z,1.96
2023-03-04T09:28:44.581Z,2.04
2023-03-04T09:31:14.143Z,2.13
2023-03-04T09:33:43.542Z,2.13
2023-03-04T09:36:12.825Z,2.12
2023-03-04T09:38:43.855Z,2.11
2023-03-04T09:41:26.280Z,2.15
2023-03-04T09:43:54.829Z,2.17
2023-03-04T09:46:29.951Z,2.16
2023-03-04T09:48:58.091Z,2.19
2023-03-04T09:51:35.740Z,2.21
2023-03-04T09:54:09.851Z,2.25
2023-03-04T09:56:39.630Z,2.26
2023-03-04T09:59:14.529Z,2.30
2023-03-04T10:01:50.853Z,2.29
2023-03-04T10:04:40.923Z,2.21
2023-03-04T10:07:18.446Z,2.11
2023-03-04T10:09:50.312Z,2.03
2023-03-04T10:12:23.706Z,1.99
2023-03-04T10:15:02.527Z,1.96
2023-03-04T10:17:39.101Z,1.99
2023-03-04T10:20:15.736Z,2.00
2023-03-04T10:22:46.405Z,1.98
2023-03-04T10:25:30.967Z,1.98
2023-03-04T10:28:05.164Z,1.94
2023-03-04T10:30:51.295Z,1.90
2023-03-04T10:33:21.312Z,1.87
2023-03-04T10:36:01.431Z,1.84
2023-03-04T10:38:39.359Z,1.72
2023-03-04T10:41:16.341Z,1.67
2023-03-04T10:44:00.639Z,1.70
2023-03-04T10:46:30.955Z,1.72
2023-03-04T10:49:02.212Z,1.66
2023-03-04T10:51:31.010Z,1.62
2023-03-04T10:54:03.672Z,1.56
2023-03-04T10:56:42.957Z,1.51
2023-03-04T10:59:53.750Z,1.54
2023-03-04T11:02:35.089Z,1.64
2023-03-04T11:05:05.891Z,1.89
2023-03-04T11:07:54.632Z,2.40
2023-03-04T11:10:26.286Z,2.94
2023-03-04T11:13:24.557Z,3.36
2023-03-04T11:15:58.288Z,3.64
2023-03-04T11:18:38.418Z,3.88
2023-03-04T11:21:30.667Z,3.96
2023-03-04T11:24:08.181Z,3.63
2023-03-04T11:26:42.377Z,3.51
2023-03-04T11:29:40.947Z,3.38
2023-03-04T11:32:15.681Z,3.40
2023-03-04T11:35:06.829Z,3.42
2023-03-04T11:37:46.763Z,3.23
2023-03-04T11:40:37.384Z,2.93
2023-03-04T11:43:15.198Z,2.84
2023-03-04T11:46:11.637Z,2.75
2023-03-04T11:48:58.931Z,2.62
2023-03-04T11:51:35.494Z,2.43
2023-03-04T11:54:06.426Z,2.43
2023-03-04T11:56:45.630Z,2.47
2023-03-04T11:59:49.183Z,2.65
2023-03-04T12:02:22.644Z,2.82
2023-03-04T12:05:01.863Z,2.89
2023-03-04T12:07:55.472Z,2.99
2023-03-04T12:10:30.608Z,2.88
2023-03-04T12:13:20.433Z,2.71
2023-03-04T12:16:22.636Z,2.59
2023-03-04T12:19:08.623Z,2.49
2023-03-04T12:22:00.161Z,2.35
2023-03-04T12:24:34.118Z,2.24
2023-03-04T12:27:22.690Z,2.13
2023-03-04T12:30:00.359Z,2.14
2023-03-04T12:32:43.375Z,2.19
2023-03-04T12:35:36.724Z,2.17
2023-03-04T12:38:32.281Z,2.12
2023-03-04T12:41:19.490Z,2.03
2023-03-04T12:44:13.866Z,2.00
2023-03-04T12:47:08.788Z,2.02
2023-03-04T12:49:57.068Z,2.03
2023-03-04T12:52:29.327Z,1.98
2023-03-04T12:54:59.140Z,1.99
2023-03-04T12:57:31.973Z,2.00
2023-03-04T13:00:22.295Z,2.00
2023-03-04T13:03:04.698Z,2.05
2023-03-04T13:05:49.914Z,2.05
2023-03-04T13:08:25.058Z,1.99
2023-03-04T13:11:04.203Z,1.99
2023-03-04T13:13:32.776Z,1.99
2023-03-04T13:16:43.576Z,2.00
2023-03-04T13:19:42.994Z,2.01
2023-03-04T13:22:33.243Z,1.92
2023-03-04T13:25:27.670Z,1.87
2023-03-04T13:28:02.989Z,1.86
2023-03-04T13:30:31.587Z,1.84
2023-03-04T13:33:08.281Z,1.82
2023-03-04T13:35:49.686Z,1.80
2023-03-04T13:38:28.365Z,1.75
2023-03-04T13:41:08.997Z,1.72
2023-03-04T13:43:43.298Z,1.69
2023-03-04T13:46:20.475Z,1.67
2023-03-04T13:48:51.712Z,1.64
2023-03-04T13:51:30.643Z,1.66
2023-03-04T13:53:58.929Z,1.67
2023-03-04T13:56:37.635Z,1.68
2023-03-04T13:59:09.738Z,1.73
2023-03-04T14:01:41.044Z,1.75
2023-03-04T14:04:34.746Z,1.79
2023-03-04T14:07:20.795Z,1.85
2023-03-04T14:10:05.303Z,1.80
2023-03-04T14:12:35.679Z,1.72
2023-03-04T14:15:05.115Z,1.70
2023-03-04T14:17:37.125Z,1.71
2023-03-04T14:20:18.161Z,1.71
2023-03-04T14:22:46.195Z,1.66
2023-03-04T14:25:14.513Z,1.65
2023-03-04T14:27:46.223Z,1.65
2023-03-04T14:30:31.747Z,1.65
2023-03-04T14:33:09.090Z,1.64
2023-03-04T14:35:41.292Z,1.62
2023-03-04T14:38:33.360Z,1.59
2023-03-04T14:41:07.764Z,1.57
2023-03-04T14:43:58.063Z,1.55
2023-03-04T14:46:29.269Z,1.55
2023-03-04T14:48:57.452Z,1.54
2023-03-04T14:51:41.954Z,1.55
2023-03-04T14:54:31.218Z,1.56
2023-03-04T14:57:15.763Z,1.55
2023-03-04T14:59:44.388Z,1.54
2023-03-04T15:02:49.152Z,1.52
2023-03-04T15:05:26.339Z,1.51
2023-03-04T15:08:02.051Z,1.50
2023-03-04T15:10:35.758Z,1.52
2023-03-04T15:13:08.253Z,1.53
2023-03-04T15:15:41.556Z,1.54
2023-03-04T15:18:24.145Z,1.52
2023-03-04T15:21:00.305Z,1.50
2023-03-04T15:23:31.220Z,1.49
2023-03-04T15:26:02.073Z,1.49
2023-03-04T15:28:33.793Z,1.49
2023-03-04T15:31:02.067Z,1.47
2023-03-04T15:33:30.269Z,1.49
2023-03-04T15:36:00.466Z,1.47
2023-03-04T15:38:28.846Z,1.48
2023-03-04T15:40:59.780Z,1.46
2023-03-04T15:43:28.284Z,1.47
2023-03-04T15:45:56.446Z,1.46
2023-03-04T15:48:27.722Z,1.45
2023-03-04T15:51:00.898Z,1.45
2023-03-04T15:53:33.149Z,1.44
2023-03-04T15:56:03.259Z,1.43
2023-03-04T15:58:35.026Z,1.42
2023-03-04T16:01:05.921Z,1.39
2023-03-04T16:03:34.642Z,1.38
2023-03-04T16:06:02.877Z,1.37
2023-03-04T16:08:32.554Z,1.37
2023-03-04T16:11:00.613Z,1.36
2023-03-04T16:13:28.901Z,1.37
2023-03-04T16:15:57.715Z,1.37
2023-03-04T16:18:26.100Z,1.35
2023-03-04T16:20:54.810Z,1.34
2023-03-04T16:23:24.991Z,1.33
2023-03-04T16:25:55.728Z,1.32
2023-03-04T16:28:25.503Z,1.32
2023-03-04T16:30:54.439Z,1.31
2023-03-04T16:33:22.866Z,1.30
2023-03-04T16:35:52.971Z,1.29
2023-03-04T16:38:28.168Z,1.27
2023-03-04T16:41:02.333Z,1.30
2023-03-04T16:43:34.174Z,1.29
2023-03-04T16:46:02.471Z,1.27
2023-03-04T16:48:30.950Z,1.26
2023-03-04T16:50:59.619Z,1.26
2023-03-04T16:53:38.346Z,1.26
2023-03-04T16:56:11.384Z,1.24
2023-03-04T16:58:40.518Z,1.23
2023-03-04T17:01:20.103Z,1.22
2023-03-04T17:03:48.215Z,1.22
2023-03-04T17:06:17.230Z,1.22
2023-03-04T17:08:45.618Z,1.22
2023-03-04T17:11:22.937Z,1.19
2023-03-04T17:13:52.952Z,1.20
2023-03-04T17:16:21.531Z,1.20
2023-03-04T17:18:57.785Z,1.20
2023-03-04T17:21:26.704Z,1.19
2023-03-04T17:23:55.045Z,1.17
2023-03-04T17:26:24.178Z,1.18
2023-03-04T17:28:52.422Z,1.18
2023-03-04T17:31:20.822Z,1.17
2023-03-04T17:33:49.652Z,1.16
2023-03-04T17:36:18.509Z,1.16
2023-03-04T17:38:46.570Z,1.14
2023-03-04T17:41:17.491Z,1.14
2023-03-04T17:43:51.744Z,1.14
2023-03-04T17:46:22.214Z,1.12
2023-03-04T17:48:55.405Z,1.11
2023-03-04T17:51:37.151Z,1.11
2023-03-04T17:54:05.997Z,1.09
2023-03-04T17:56:41.721Z,1.08
2023-03-04T17:59:14.920Z,1.08
2023-03-04T18:01:45.294Z,1.06
2023-03-04T18:04:14.178Z,1.04
2023-03-04T18:06:42.676Z,1.05
2023-03-04T18:09:13.226Z,1.06
2023-03-04T18:11:41.522Z,1.08
2023-03-04T18:14:11.333Z,1.07
2023-03-04T18:16:43.202Z,1.07
2023-03-04T18:19:11.372Z,1.08
2023-03-04T18:21:44.494Z,1.10
2023-03-04T18:24:12.919Z,1.10
2023-03-04T18:26:41.510Z,1.09
2023-03-04T18:29:10.619Z,1.09
2023-03-04T18:31:38.737Z,1.09
2023-03-04T18:34:06.781Z,1.09
2023-03-04T18:36:34.912Z,1.09
2023-03-04T18:39:05.378Z,1.10
2023-03-04T18:41:33.963Z,1.11
2023-03-04T18:44:02.028Z,1.11
2023-03-04T18:46:40.402Z,1.10
2023-03-04T18:49:09.431Z,1.12
2023-03-04T18:51:40.655Z,1.11
2023-03-04T18:54:08.934Z,1.12
2023-03-04T18:56:56.113Z,1.12
2023-03-04T18:59:31.454Z,1.12
2023-03-04T19:02:03.898Z,1.12
2023-03-04T19:04:32.035Z,1.09
2023-03-04T19:07:00.488Z,1.06
2023-03-04T19:09:28.728Z,1.05
2023-03-04T19:11:56.920Z,1.06
2023-03-04T19:14:25.670Z,1.06
2023-03-04T19:16:54.866Z,1.06
2023-03-04T19:19:22.989Z,1.06
2023-03-04T19:21:51.223Z,1.07
2023-03-04T19:24:19.348Z,1.08
2023-03-04T19:26:54.778Z,1.10
2023-03-04T19:29:22.943Z,1.08
2023-03-04T19:31:51.226Z,1.07
2023-03-04T19:34:19.277Z,1.07
2023-03-04T19:36:47.650Z,1.09
2023-03-04T19:39:17.047Z,1.09
2023-03-04T19:41:45.556Z,1.10
2023-03-04T19:44:13.678Z,1.06
2023-03-04T19:46:42.693Z,1.03
2023-03-04T19:49:10.778Z,0.99
2023-03-04T19:51:39.718Z,0.97
2023-03-04T19:54:08.055Z,0.96
2023-03-04T19:56:36.383Z,0.94
2023-03-04T19:59:04.480Z,0.93
2023-03-04T20:01:36.488Z,0.91
2023-03-04T20:04:08.405Z,0.91
2023-03-04T20:06:44.216Z,0.92
2023-03-04T20:09:12.950Z,0.91
2023-03-04T20:11:54.940Z,0.91
2023-03-04T20:14:28.042Z,0.93
2023-03-04T20:17:04.027Z,0.96
2023-03-04T20:19:33.235Z,0.97
2023-03-04T20:22:02.140Z,0.99
2023-03-04T20:24:37.047Z,1.01
2023-03-04T20:27:08.168Z,1.04
2023-03-04T20:29:36.419Z,1.06
2023-03-04T20:32:07.491Z,1.08
2023-03-04T20:34:36.968Z,1.11
2023-03-04T20:37:05.171Z,1.14
2023-03-04T20:39:34.176Z,1.15
2023-03-04T20:42:03.251Z,1.17
2023-03-04T20:44:32.385Z,1.18
2023-03-04T20:47:01.884Z,1.15
2023-03-04T20:49:30.169Z,0.62
2023-03-04T20:52:03.420Z,-0.05
2023-03-04T20:54:35.777Z,-0.53
2023-03-04T20:57:08.462Z,-0.80
2023-03-04T20:59:38.030Z,-0.95
2023-03-04T21:02:14.059Z,-1.02
2023-03-04T21:04:44.054Z,-1.07
2023-03-04T21:07:12.505Z,-1.08
2023-03-04T21:09:44.882Z,-1.05
2023-03-04T21:12:12.970Z,-1.04
2023-03-04T21:14:45.651Z,-1.02
2023-03-04T21:17:14.744Z,-0.99
2023-03-04T21:19:45.706Z,-0.95
2023-03-04T21:22:15.904Z,-0.99
2023-03-04T21:24:48.064Z,-1.03
2023-03-04T21:27:17.173Z,-1.05
2023-03-04T21:29:46.767Z,-1.06
2023-03-04T21:32:25.072Z,-1.08
2023-03-04T21:34:54.223Z,-1.10
2023-03-04T21:37:23.767Z,-1.10
2023-03-04T21:39:55.241Z,-1.11
2023-03-04T21:42:24.139Z,-1.13
2023-03-04T21:44:55.036Z,-1.16
2023-03-04T21:47:23.789Z,-1.18
2023-03-04T21:49:51.918Z,-1.20
2023-03-04T21:52:20.864Z,-1.23
2023-03-04T21:54:49.867Z,-1.24
2023-03-04T21:57:19.525Z,-1.27
2023-03-04T21:59:48.461Z,-1.30
2023-03-04T22:02:18.510Z,-1.33
2023-03-04T22:04:48.337Z,-1.36
2023-03-04T22:07:17.028Z,-1.37
2023-03-04T22:09:47.947Z,-1.38
2023-03-04T22:12:19.720Z,-1.38
2023-03-04T22:14:48.020Z,-1.40
2023-03-04T22:17:16.316Z,-1.43
2023-03-04T22:19:44.613Z,-1.43
2023-03-04T22:22:12.756Z,-1.43
2023-03-04T22:24:42.667Z,-1.45
2023-03-04T22:27:11.527Z,-1.47
2023-03-04T22:29:44.547Z,-1.47
2023-03-04T22:32:17.221Z,-1.48
2023-03-04T22:34:46.760Z,-1.48
2023-03-04T22:37:14.991Z,-1.48
2023-03-04T22:39:43.588Z,-1.47
2023-03-04T22:42:12.061Z,-1.45
2023-03-04T22:44:40.676Z,-1.45
2023-03-04T22:47:08.721Z,-1.43
2023-03-04T22:49:37.944Z,-1.44
2023-03-04T22:52:07.364Z,-1.46
2023-03-04T22:54:35.641Z,-1.45
2023-03-04T22:57:03.792Z,-1.47
2023-03-04T22:59:32.148Z,-1.47
2023-03-04T23:02:03.824Z,-1.48
2023-03-04T23:04:33.650Z,-1.47
2023-03-04T23:07:01.913Z,-1.48
2023-03-04T23:09:30.644Z,-1.47
2023-03-04T23:12:02.144Z,-1.47
2023-03-04T23:14:35.607Z,-1.49
2023-03-04T23:17:05.668Z,-1.52
2023-03-04T23:19:35.044Z,-1.55
2023-03-04T23:22:03.963Z,-1.60
2023-03-04T23:24:32.132Z,-1.64
2023-03-04T23:27:00.365Z,-1.69
2023-03-04T23:29:28.734Z,-1.76
2023-03-04T23:31:57.039Z,-1.81
2023-03-04T23:34:26.132Z,-1.85
2023-03-04T23:36:54.605Z,-1.91
2023-03-04T23:39:25.845Z,-1.99
2023-03-04T23:41:54.628Z,-2.02
2023-03-04T23:44:22.725Z,-2.05
2023-03-04T23:46:51.769Z,-2.10
2023-03-04T23:49:22.495Z,-2.13
2023-03-04T23:51:51.010Z,-2.19
2023-03-04T23:54:19.464Z,-2.23
2023-03-04T23:56:47.824Z,-2.31
2023-03-04T23:59:21.100Z,-2.38
